Aviation Digital Data Service (ADDS)

Output produced by METARs form (1503 UTC 16 February 2019)
found at http://aviationweather.gov/metar/data/
 
ELLX 161450Z 21003KT 160V230 CAVOK 13/02 Q1026 NOSIG
ELLX 161420Z 23003KT 180V310 CAVOK 13/03 Q1027 NOSIG
TAF ELLX 161100Z 1612/1718 18005KT CAVOK